Time;durP1;ratioP1;P1;durP2;ratioP2;P2;SDS_P1;SDS_P2;PMS_P1;PMS_P2;Temp;Humidity;BMP_temperature;BMP_pressure;BME280_temperature;BME280_humidity;BME280_pressure;Samples;Min_cycle;Max_cycle;Signal;HPM_P1;HPM_P2
2021/09/15 00:01:18;;;;;;;16.10;14.70;;;15.50;99.90;;;;;;5079390;28;20189;-55
2021/09/15 00:03:43;;;;;;;15.53;14.13;;;15.40;99.90;;;;;;5074309;28;20181;-55
2021/09/15 00:06:09;;;;;;;15.70;14.30;;;15.50;99.90;;;;;;5068191;28;20692;-56
2021/09/15 00:08:34;;;;;;;14.97;13.67;;;15.40;99.90;;;;;;5069462;28;20971;-57
2021/09/15 00:11:00;;;;;;;14.40;13.10;;;15.50;99.90;;;;;;5077335;28;20194;-54
2021/09/15 00:13:27;;;;;;;14.47;13.17;;;15.40;99.90;;;;;;5069586;28;20208;-56
2021/09/15 00:15:53;;;;;;;14.73;13.33;;;15.40;99.90;;;;;;5069724;28;21002;-57
2021/09/15 00:18:18;;;;;;;13.80;12.40;;;15.30;99.90;;;;;;5067072;28;20472;-57
2021/09/15 00:20:44;;;;;;;14.63;13.23;;;15.30;99.90;;;;;;5070057;28;20178;-57
2021/09/15 00:23:09;;;;;;;14.20;13.00;;;15.30;99.90;;;;;;5078129;28;20831;-57
2021/09/15 00:25:35;;;;;;;14.30;13.00;;;15.30;99.90;;;;;;5063537;28;20281;-54
2021/09/15 00:28:00;;;;;;;13.63;12.47;;;15.30;99.90;;;;;;5069538;28;20276;-52
2021/09/15 00:30:26;;;;;;;14.27;12.97;;;15.20;99.90;;;;;;5068339;28;20181;-56
2021/09/15 00:32:52;;;;;;;13.60;12.30;;;15.20;99.90;;;;;;5071343;28;20212;-54
2021/09/15 00:35:17;;;;;;;13.70;12.50;;;15.30;99.90;;;;;;5083282;28;20220;-55
2021/09/15 00:37:43;;;;;;;13.80;12.50;;;15.30;99.90;;;;;;5070029;28;20182;-51
2021/09/15 00:40:09;;;;;;;14.23;12.93;;;15.30;99.90;;;;;;5083581;28;20189;-56
2021/09/15 00:42:35;;;;;;;13.10;11.90;;;15.30;99.90;;;;;;5073638;28;20672;-57
2021/09/15 00:45:00;;;;;;;14.27;12.87;;;15.30;99.90;;;;;;5068447;28;20470;-56
2021/09/15 00:47:26;;;;;;;14.20;12.80;;;15.30;99.90;;;;;;5066891;28;20187;-58
2021/09/15 00:49:51;;;;;;;13.80;12.60;;;15.30;99.90;;;;;;5069644;28;20190;-56
2021/09/15 00:52:18;;;;;;;14.27;12.90;;;15.30;99.90;;;;;;5064217;28;20236;-54
2021/09/15 00:54:44;;;;;;;14.60;13.10;;;15.30;99.90;;;;;;5063452;28;20209;-52
2021/09/15 00:57:10;;;;;;;14.00;12.63;;;15.20;99.90;;;;;;5067384;28;20458;-57
2021/09/15 00:59:35;;;;;;;14.03;12.83;;;15.20;99.90;;;;;;5067041;28;20432;-57
2021/09/15 01:02:02;;;;;;;14.63;13.33;;;15.20;99.90;;;;;;5085278;28;20276;-55
2021/09/15 01:04:27;;;;;;;13.47;12.27;;;15.20;99.90;;;;;;5071198;28;20440;-55
2021/09/15 01:06:53;;;;;;;13.43;12.10;;;15.20;99.90;;;;;;5067367;28;21002;-59
2021/09/15 01:09:20;;;;;;;14.33;13.00;;;15.10;99.90;;;;;;5070620;28;20605;-54
2021/09/15 01:11:46;;;;;;;13.20;12.10;;;15.20;99.90;;;;;;5069110;28;20470;-58
2021/09/15 01:14:13;;;;;;;13.63;12.23;;;15.20;99.90;;;;;;5082666;28;20466;-55
2021/09/15 01:16:50;;;;;;;13.80;12.37;;;15.20;99.90;;;;;;5074444;28;20467;-55
2021/09/15 01:19:16;;;;;;;14.83;13.33;;;15.10;99.90;;;;;;5070595;28;20436;-57
2021/09/15 01:21:43;;;;;;;13.90;12.70;;;15.00;99.90;;;;;;5067207;28;20458;-57
2021/09/15 01:24:09;;;;;;;14.90;13.50;;;15.00;99.90;;;;;;5073030;28;20567;-57
2021/09/15 01:26:35;;;;;;;13.50;12.30;;;15.00;99.90;;;;;;5075987;28;20905;-58
2021/09/15 01:29:01;;;;;;;14.00;12.70;;;15.10;99.90;;;;;;5074512;28;20197;-54
2021/09/15 01:31:27;;;;;;;13.20;12.00;;;15.10;99.90;;;;;;5073043;28;20478;-58
2021/09/15 01:33:52;;;;;;;13.90;12.67;;;15.10;99.90;;;;;;5072806;28;20275;-59
2021/09/15 01:36:18;;;;;;;13.13;11.97;;;15.10;99.90;;;;;;5055732;28;20199;-56
2021/09/15 01:38:43;;;;;;;13.60;12.30;;;15.10;99.90;;;;;;5068788;28;20583;-57
2021/09/15 01:41:09;;;;;;;13.73;12.47;;;15.10;99.90;;;;;;5069422;28;20897;-56
2021/09/15 01:43:35;;;;;;;13.47;12.17;;;15.10;99.90;;;;;;5068287;28;20260;-55
2021/09/15 01:46:00;;;;;;;13.83;12.57;;;15.10;99.90;;;;;;5065569;28;20280;-59
2021/09/15 01:48:26;;;;;;;13.47;12.27;;;15.10;99.90;;;;;;5066778;28;20248;-55
2021/09/15 01:50:51;;;;;;;13.20;11.90;;;15.20;99.90;;;;;;5066181;28;20193;-55
2021/09/15 01:53:17;;;;;;;13.97;12.77;;;15.20;99.90;;;;;;5068300;28;20213;-57
2021/09/15 01:55:43;;;;;;;12.00;11.00;;;15.10;99.90;;;;;;5064383;28;20190;-55
2021/09/15 01:58:10;;;;;;;14.23;12.90;;;15.20;99.90;;;;;;5081114;28;20219;-57
2021/09/15 02:00:36;;;;;;;12.80;11.73;;;15.20;99.90;;;;;;5082795;28;20173;-57
2021/09/15 02:03:02;;;;;;;12.73;11.60;;;15.20;99.90;;;;;;5074677;28;20450;-55
2021/09/15 02:05:27;;;;;;;14.43;13.03;;;15.20;99.90;;;;;;5082721;28;20454;-54
2021/09/15 02:07:53;;;;;;;13.27;12.03;;;15.10;99.90;;;;;;5083375;28;20192;-56
2021/09/15 02:10:18;;;;;;;13.00;11.80;;;15.10;99.90;;;;;;5067052;28;20545;-57
2021/09/15 02:12:44;;;;;;;13.00;11.80;;;15.20;99.90;;;;;;5068287;28;20186;-57
2021/09/15 02:15:11;;;;;;;13.70;12.40;;;15.20;99.90;;;;;;5066886;28;20550;-56
2021/09/15 02:17:37;;;;;;;12.93;11.80;;;15.20;99.90;;;;;;5065806;28;20177;-58
2021/09/15 02:20:05;;;;;;;12.23;11.20;;;15.20;99.90;;;;;;5068233;28;20435;-58
2021/09/15 02:22:30;;;;;;;12.70;11.60;;;15.20;99.90;;;;;;5069143;28;20519;-59
2021/09/15 02:24:56;;;;;;;12.47;11.33;;;15.20;99.90;;;;;;5067572;28;20971;-58
2021/09/15 02:27:22;;;;;;;13.33;11.97;;;15.20;99.90;;;;;;5064796;28;20192;-56
2021/09/15 02:29:47;;;;;;;13.40;12.20;;;15.20;99.90;;;;;;5080041;28;20263;-57
2021/09/15 02:32:13;;;;;;;14.07;11.90;;;15.10;99.90;;;;;;5072223;28;20185;-57
2021/09/15 02:34:38;;;;;;;13.20;12.03;;;15.10;99.90;;;;;;5072599;28;20216;-57
2021/09/15 02:37:04;;;;;;;12.87;11.70;;;15.10;99.90;;;;;;5072260;28;20260;-57
2021/09/15 02:39:30;;;;;;;13.23;12.03;;;15.10;99.90;;;;;;5073080;28;20188;-57
2021/09/15 02:41:56;;;;;;;13.50;11.93;;;15.10;99.90;;;;;;5070286;28;20181;-56
2021/09/15 02:44:22;;;;;;;13.37;12.17;;;15.10;99.90;;;;;;5068605;28;20450;-57
2021/09/15 02:46:47;;;;;;;13.50;12.20;;;15.00;99.90;;;;;;5071381;28;20436;-54
2021/09/15 02:49:13;;;;;;;12.63;11.43;;;15.10;99.90;;;;;;5085733;28;20185;-53
2021/09/15 02:51:38;;;;;;;14.40;13.00;;;15.00;99.90;;;;;;5071948;28;20235;-55
2021/09/15 02:54:04;;;;;;;13.83;12.43;;;15.00;99.90;;;;;;5072812;28;20671;-56
2021/09/15 02:56:30;;;;;;;13.43;12.23;;;15.10;99.90;;;;;;5063661;28;20265;-55
2021/09/15 02:58:55;;;;;;;12.90;11.70;;;15.10;99.90;;;;;;5088660;28;20177;-55
2021/09/15 03:01:21;;;;;;;13.30;12.10;;;15.10;99.90;;;;;;5082664;28;20522;-58
2021/09/15 03:03:46;;;;;;;13.03;11.80;;;15.10;99.90;;;;;;5081259;28;20244;-56
2021/09/15 03:06:12;;;;;;;12.80;11.53;;;15.10;99.90;;;;;;5068870;28;20178;-55
2021/09/15 03:08:38;;;;;;;12.03;11.00;;;15.10;99.90;;;;;;5079289;28;20855;-56
2021/09/15 03:11:03;;;;;;;12.80;11.60;;;15.10;99.90;;;;;;5077655;28;20695;-55
2021/09/15 03:13:29;;;;;;;13.13;12.07;;;15.20;99.90;;;;;;5080234;28;20182;-54
2021/09/15 03:15:54;;;;;;;13.27;12.10;;;15.20;99.90;;;;;;5068862;28;20228;-54
2021/09/15 03:18:20;;;;;;;11.80;10.80;;;15.20;99.90;;;;;;5071292;28;20628;-55
2021/09/15 03:20:45;;;;;;;11.60;10.60;;;15.30;99.90;;;;;;5072852;28;20313;-56
2021/09/15 03:23:11;;;;;;;13.07;11.80;;;15.40;99.90;;;;;;5069779;28;20727;-55
2021/09/15 03:25:36;;;;;;;12.20;11.10;;;15.40;99.90;;;;;;5076024;28;20178;-59
2021/09/15 03:28:02;;;;;;;12.70;11.60;;;15.50;99.90;;;;;;5086491;28;20185;-55
2021/09/15 03:30:28;;;;;;;12.10;11.00;;;15.50;99.90;;;;;;5066719;28;20247;-54
2021/09/15 03:32:53;;;;;;;12.83;11.73;;;15.60;99.90;;;;;;5070801;28;20181;-53
2021/09/15 03:35:19;;;;;;;12.47;11.27;;;15.60;99.90;;;;;;5081999;28;20200;-56
2021/09/15 03:37:44;;;;;;;13.70;12.27;;;15.50;99.90;;;;;;5084091;28;20185;-56
2021/09/15 03:40:10;;;;;;;12.83;11.70;;;15.60;99.90;;;;;;5074730;28;20297;-55
2021/09/15 03:42:36;;;;;;;12.80;11.60;;;15.60;99.90;;;;;;5070478;28;20258;-56
2021/09/15 03:45:04;;;;;;;13.23;11.90;;;15.60;99.90;;;;;;5069523;28;20554;-56
2021/09/15 03:47:29;;;;;;;12.70;11.40;;;15.60;99.90;;;;;;5087136;28;20222;-56
2021/09/15 03:49:55;;;;;;;12.93;11.70;;;15.70;99.90;;;;;;5069235;28;20439;-54
2021/09/15 03:52:20;;;;;;;12.13;11.00;;;15.70;99.90;;;;;;5075377;28;20196;-55
2021/09/15 03:54:46;;;;;;;12.50;11.40;;;15.70;99.90;;;;;;5068207;28;20531;-54
2021/09/15 03:57:12;;;;;;;13.07;11.87;;;15.70;99.90;;;;;;5065698;28;20181;-54
2021/09/15 03:59:37;;;;;;;13.83;11.53;;;15.70;99.90;;;;;;5075565;28;20866;-56
2021/09/15 04:02:03;;;;;;;12.80;11.70;;;15.80;99.90;;;;;;5077892;28;20666;-56
2021/09/15 04:04:28;;;;;;;13.37;12.10;;;15.80;99.90;;;;;;5070374;28;20209;-57
2021/09/15 04:06:55;;;;;;;14.20;11.93;;;15.80;99.90;;;;;;5068928;28;20240;-56
2021/09/15 04:09:21;;;;;;;13.50;12.20;;;15.90;99.90;;;;;;5088616;28;20760;-56
2021/09/15 04:11:47;;;;;;;13.43;12.23;;;15.80;99.90;;;;;;5070656;28;20530;-58
2021/09/15 04:14:12;;;;;;;14.03;12.73;;;15.80;99.90;;;;;;5074458;28;20196;-48
2021/09/15 04:16:38;;;;;;;13.27;12.07;;;15.90;99.90;;;;;;5071832;28;20581;-56
2021/09/15 04:19:04;;;;;;;13.67;12.47;;;15.80;99.90;;;;;;5072684;28;20188;-57
2021/09/15 04:21:29;;;;;;;13.00;11.80;;;15.90;99.90;;;;;;5069988;28;20197;-55
2021/09/15 04:31:58;;;;;;;12.40;11.30;;;16.10;99.90;;;;;;5080304;28;20480;-57
2021/09/15 04:34:24;;;;;;;13.00;11.80;;;16.10;99.90;;;;;;5068856;28;20465;-58
2021/09/15 04:36:49;;;;;;;13.27;11.97;;;16.10;99.90;;;;;;5079100;28;20921;-55
2021/09/15 04:39:15;;;;;;;13.30;12.00;;;16.10;99.90;;;;;;5074299;28;20181;-58
2021/09/15 04:41:41;;;;;;;13.27;11.97;;;16.10;99.90;;;;;;5061025;28;20186;-58
2021/09/15 04:44:06;;;;;;;12.70;11.60;;;16.10;99.90;;;;;;5070691;28;20317;-52
2021/09/15 04:46:32;;;;;;;14.00;12.73;;;16.20;99.90;;;;;;5071456;28;20185;-57
2021/09/15 04:48:57;;;;;;;12.80;11.60;;;16.20;99.90;;;;;;5085409;28;20169;-56
2021/09/15 04:51:23;;;;;;;13.63;12.43;;;16.30;99.90;;;;;;5079717;28;20270;-57
2021/09/15 04:53:48;;;;;;;28.83;22.93;;;16.40;99.90;;;;;;5074947;28;20193;-57
2021/09/15 04:56:14;;;;;;;12.83;11.73;;;16.50;99.90;;;;;;5076146;28;20187;-57
2021/09/15 04:58:39;;;;;;;12.77;11.67;;;16.50;99.90;;;;;;5087095;28;20186;-57
2021/09/15 05:01:06;;;;;;;13.03;11.83;;;16.50;99.90;;;;;;5076573;28;20196;-56
2021/09/15 05:03:31;;;;;;;13.07;11.87;;;16.50;99.90;;;;;;5084776;28;20212;-54
2021/09/15 05:05:57;;;;;;;12.70;11.60;;;16.60;99.90;;;;;;5081016;28;20428;-58
2021/09/15 05:08:22;;;;;;;12.63;11.53;;;16.50;99.90;;;;;;5083985;28;20275;-57
2021/09/15 05:10:48;;;;;;;13.67;12.37;;;16.60;99.90;;;;;;5089914;28;20173;-57
2021/09/15 05:13:13;;;;;;;12.70;11.57;;;16.60;99.90;;;;;;5071710;28;20178;-54
2021/09/15 05:15:39;;;;;;;12.47;11.37;;;16.60;99.90;;;;;;5089789;28;20205;-55
2021/09/15 05:18:05;;;;;;;12.87;11.77;;;16.50;99.90;;;;;;5068420;28;20606;-57
2021/09/15 05:20:30;;;;;;;12.97;11.80;;;16.50;99.90;;;;;;5069293;28;20173;-56
2021/09/15 05:22:56;;;;;;;13.27;12.07;;;16.60;99.90;;;;;;5069504;28;20237;-58
2021/09/15 05:25:23;;;;;;;13.13;11.87;;;16.70;99.90;;;;;;5067102;28;20655;-56
2021/09/15 05:27:49;;;;;;;12.50;11.40;;;16.70;99.90;;;;;;5069985;28;20228;-53
2021/09/15 05:30:16;;;;;;;13.27;11.97;;;16.70;99.90;;;;;;5069144;28;20848;-54
2021/09/15 05:32:41;;;;;;;12.53;11.40;;;16.80;99.90;;;;;;5076158;28;20459;-57
2021/09/15 05:35:11;;;;;;;13.07;11.87;;;16.90;99.90;;;;;;5089388;28;20469;-55
2021/09/15 05:37:37;;;;;;;13.33;12.13;;;16.90;99.90;;;;;;5072901;28;20212;-56
2021/09/15 05:40:04;;;;;;;13.73;12.00;;;17.00;99.90;;;;;;5068950;28;20427;-55
2021/09/15 05:42:30;;;;;;;12.30;11.23;;;17.10;99.90;;;;;;5069957;28;20842;-56
2021/09/15 05:44:58;;;;;;;12.33;11.30;;;17.10;99.90;;;;;;5067654;28;20464;-54
2021/09/15 05:47:23;;;;;;;13.30;12.10;;;17.10;99.90;;;;;;5069972;28;20178;-55
2021/09/15 05:49:49;;;;;;;12.60;11.50;;;17.20;99.90;;;;;;5058222;28;20482;-56
2021/09/15 05:52:14;;;;;;;12.53;11.43;;;17.30;99.90;;;;;;5068479;28;20171;-55
2021/09/15 05:54:40;;;;;;;13.07;11.87;;;17.40;99.90;;;;;;5083165;28;20189;-56
2021/09/15 05:57:05;;;;;;;12.37;11.30;;;17.40;99.90;;;;;;5088649;28;20243;-56
2021/09/15 05:59:31;;;;;;;12.60;11.40;;;17.60;99.90;;;;;;5076292;28;20197;-56
2021/09/15 06:01:56;;;;;;;13.07;11.70;;;17.60;99.90;;;;;;5089162;28;20181;-57
2021/09/15 06:04:22;;;;;;;12.70;11.63;;;17.70;99.90;;;;;;5084970;28;20265;-56
2021/09/15 06:06:48;;;;;;;12.20;11.10;;;17.80;99.90;;;;;;5089207;28;20544;-57
2021/09/15 06:09:13;;;;;;;12.50;11.43;;;17.80;99.90;;;;;;5085990;28;20184;-57
2021/09/15 06:11:39;;;;;;;12.77;11.63;;;17.90;99.90;;;;;;5088292;28;20624;-55
2021/09/15 06:14:04;;;;;;;12.27;10.90;;;18.00;99.90;;;;;;5074977;28;20747;-56
2021/09/15 06:16:30;;;;;;;11.63;10.63;;;18.10;99.90;;;;;;5086265;28;20199;-57
2021/09/15 06:18:55;;;;;;;12.33;11.30;;;18.10;99.90;;;;;;5072105;28;20268;-56
2021/09/15 06:21:21;;;;;;;11.63;10.53;;;18.20;99.90;;;;;;5071129;28;20228;-56
2021/09/15 06:23:47;;;;;;;13.33;12.03;;;18.30;99.90;;;;;;5072690;28;20212;-52
2021/09/15 06:26:12;;;;;;;12.53;11.40;;;18.40;99.90;;;;;;5069196;28;20180;-58
2021/09/15 06:28:39;;;;;;;12.07;10.97;;;18.50;99.90;;;;;;5087201;28;20184;-57
2021/09/15 06:31:05;;;;;;;11.60;10.60;;;18.60;99.90;;;;;;5092504;28;20670;-57
2021/09/15 06:33:32;;;;;;;13.10;11.93;;;18.70;99.90;;;;;;5079846;28;20515;-56
2021/09/15 06:35:58;;;;;;;12.37;11.40;;;18.70;99.90;;;;;;5072621;28;20426;-56
2021/09/15 06:38:24;;;;;;;12.00;10.90;;;18.70;99.90;;;;;;5072732;28;20525;-57
2021/09/15 06:40:49;;;;;;;12.10;11.03;;;18.80;99.90;;;;;;5062578;28;20548;-53
2021/09/15 06:43:15;;;;;;;11.77;10.80;;;18.90;99.90;;;;;;5071940;28;20228;-56
2021/09/15 06:45:40;;;;;;;12.30;11.20;;;19.00;99.90;;;;;;5092925;28;20195;-56
2021/09/15 06:48:06;;;;;;;11.30;10.20;;;19.10;99.90;;;;;;5090807;28;20181;-57
2021/09/15 06:50:31;;;;;;;12.80;11.70;;;19.20;99.90;;;;;;5079406;28;20270;-57
2021/09/15 06:52:57;;;;;;;12.33;11.17;;;19.30;99.90;;;;;;5086763;28;20197;-54
2021/09/15 06:55:23;;;;;;;11.80;10.80;;;19.40;99.90;;;;;;5071976;28;20198;-56
2021/09/15 06:57:50;;;;;;;12.00;11.00;;;19.40;99.90;;;;;;5071762;28;20185;-57
2021/09/15 07:00:18;;;;;;;12.27;11.27;;;19.50;99.90;;;;;;5071929;28;20428;-58
2021/09/15 07:02:45;;;;;;;12.47;11.37;;;19.60;99.90;;;;;;5072083;28;20431;-58
2021/09/15 07:05:11;;;;;;;11.27;10.37;;;19.70;99.90;;;;;;5070475;28;20477;-61
2021/09/15 07:07:36;;;;;;;11.90;10.90;;;19.70;99.90;;;;;;5068429;28;20524;-55
2021/09/15 07:10:04;;;;;;;12.73;11.53;;;19.80;99.90;;;;;;5076795;28;20522;-58
2021/09/15 07:12:29;;;;;;;12.20;11.20;;;19.90;99.90;;;;;;5082268;28;20241;-58
2021/09/15 07:14:55;;;;;;;12.03;11.10;;;19.90;99.90;;;;;;5081122;28;20774;-58
2021/09/15 07:17:20;;;;;;;11.77;10.83;;;20.00;99.90;;;;;;5076947;28;20197;-58
2021/09/15 07:19:46;;;;;;;12.87;11.67;;;20.10;99.90;;;;;;5071991;28;20194;-57
2021/09/15 07:22:12;;;;;;;11.93;10.90;;;20.20;99.90;;;;;;5073109;28;20188;-57
2021/09/15 07:24:37;;;;;;;12.30;11.40;;;20.40;99.90;;;;;;5083694;28;20580;-57
2021/09/15 07:27:03;;;;;;;11.77;10.87;;;20.50;99.90;;;;;;5071848;28;20193;-57
2021/09/15 07:29:28;;;;;;;11.37;10.43;;;20.50;99.90;;;;;;5092039;28;20209;-54
2021/09/15 07:31:54;;;;;;;12.13;11.20;;;20.60;99.90;;;;;;5081684;28;20185;-56
2021/09/15 07:34:19;;;;;;;11.50;10.40;;;20.60;99.90;;;;;;5071469;28;20508;-56
2021/09/15 07:36:45;;;;;;;11.10;10.20;;;20.70;99.90;;;;;;5071464;28;20685;-56
2021/09/15 07:39:11;;;;;;;12.73;11.63;;;20.90;99.90;;;;;;5091510;28;20189;-59
2021/09/15 07:41:36;;;;;;;11.80;10.80;;;21.10;99.90;;;;;;5084426;28;20624;-58
2021/09/15 07:44:02;;;;;;;11.27;10.33;;;21.20;99.90;;;;;;5081599;28;20271;-58
2021/09/15 07:46:27;;;;;;;11.00;10.20;;;21.20;99.90;;;;;;5073630;28;20304;-59
2021/09/15 07:48:53;;;;;;;11.90;11.00;;;21.30;99.90;;;;;;5091408;28;20584;-56
2021/09/15 07:51:20;;;;;;;11.93;11.03;;;21.40;99.90;;;;;;5081888;28;20189;-58
2021/09/15 07:53:46;;;;;;;12.20;11.10;;;21.50;99.90;;;;;;5069547;28;20181;-56
2021/09/15 07:56:12;;;;;;;12.37;11.27;;;21.60;99.90;;;;;;5070940;28;20428;-57
2021/09/15 07:58:37;;;;;;;12.40;11.40;;;21.60;99.90;;;;;;5070884;28;20425;-55
2021/09/15 08:01:03;;;;;;;12.47;11.37;;;21.80;99.90;;;;;;5068135;28;20236;-57
2021/09/15 08:03:29;;;;;;;11.10;10.30;;;22.00;99.90;;;;;;5070672;28;20247;-55
2021/09/15 08:05:57;;;;;;;11.90;10.90;;;22.10;99.90;;;;;;5071204;28;20190;-57
2021/09/15 08:08:22;;;;;;;11.00;10.20;;;22.40;99.90;;;;;;5085746;28;20259;-57
2021/09/15 08:10:48;;;;;;;12.53;11.57;;;22.60;99.90;;;;;;5080350;28;20440;-55
2021/09/15 08:13:13;;;;;;;11.93;11.03;;;22.70;99.90;;;;;;5078723;28;20190;-55
2021/09/15 08:15:39;;;;;;;12.30;11.20;;;22.80;99.90;;;;;;5086453;28;20183;-52
2021/09/15 08:18:05;;;;;;;12.17;11.17;;;22.90;99.90;;;;;;5070526;28;20194;-56
2021/09/15 08:20:30;;;;;;;12.07;11.17;;;23.10;99.90;;;;;;5069397;28;20172;-57
2021/09/15 08:22:56;;;;;;;12.77;11.77;;;23.40;99.90;;;;;;5066397;28;20192;-57
2021/09/15 08:25:22;;;;;;;11.60;10.70;;;23.50;99.90;;;;;;5068352;28;20681;-56
2021/09/15 08:27:48;;;;;;;12.20;11.30;;;23.70;99.90;;;;;;5070306;28;20187;-58
2021/09/15 08:30:14;;;;;;;11.70;10.80;;;24.10;99.90;;;;;;5067137;28;20420;-56
2021/09/15 08:32:40;;;;;;;10.70;9.90;;;24.50;98.60;;;;;;5069976;28;20423;-57
2021/09/15 08:35:06;;;;;;;11.40;10.60;;;24.70;98.30;;;;;;5070199;28;20186;-57
2021/09/15 08:37:36;;;;;;;11.30;10.50;;;24.80;97.00;;;;;;5070240;28;20189;-58
2021/09/15 08:40:05;;;;;;;11.63;10.80;;;24.80;96.60;;;;;;5070363;28;20431;-57
2021/09/15 08:42:32;;;;;;;11.83;11.00;;;24.70;96.90;;;;;;5086426;28;20499;-57
2021/09/15 08:44:57;;;;;;;11.60;10.67;;;25.00;96.80;;;;;;5083315;28;20813;-58
2021/09/15 08:47:26;;;;;;;12.33;11.20;;;25.40;95.50;;;;;;5077892;28;20514;-55
2021/09/15 08:49:52;;;;;;;11.27;10.43;;;25.50;94.80;;;;;;5090058;28;20292;-58
2021/09/15 08:52:17;;;;;;;11.53;10.73;;;25.90;94.20;;;;;;5088480;28;20540;-58
2021/09/15 08:54:43;;;;;;;10.80;9.80;;;26.30;93.60;;;;;;5072782;28;20442;-56
2021/09/15 08:57:09;;;;;;;10.17;9.57;;;26.80;92.90;;;;;;5074052;28;20206;-55
2021/09/15 08:59:34;;;;;;;11.20;10.40;;;27.20;91.20;;;;;;5077123;28;20254;-57
2021/09/15 09:02:09;;;;;;;10.40;9.70;;;27.40;90.10;;;;;;5080330;28;20302;-53
2021/09/15 09:04:56;;;;;;;11.13;10.40;;;27.60;87.90;;;;;;5088371;28;20655;-53
2021/09/15 09:07:25;;;;;;;10.10;9.50;;;28.00;86.90;;;;;;5075632;28;20465;-54
2021/09/15 09:09:55;;;;;;;11.87;11.07;;;28.20;84.50;;;;;;5089624;28;20953;-49
2021/09/15 09:12:23;;;;;;;10.87;10.17;;;28.30;82.90;;;;;;5078603;28;20814;-51
2021/09/15 09:14:49;;;;;;;11.20;10.50;;;28.00;82.40;;;;;;5089657;28;20438;-52
2021/09/15 09:17:27;;;;;;;11.90;11.00;;;27.70;83.10;;;;;;5074905;28;20422;-53
2021/09/15 09:20:17;;;;;;;11.13;10.43;;;27.30;83.40;;;;;;5055286;28;20512;-53
2021/09/15 09:23:04;;;;;;;11.90;11.10;;;27.20;86.50;;;;;;5068339;28;20427;-53
2021/09/15 09:25:33;;;;;;;11.03;10.33;;;27.10;85.70;;;;;;5068466;28;20555;-51
2021/09/15 09:28:00;;;;;;;12.23;11.33;;;27.20;86.50;;;;;;5076768;28;20445;-51
2021/09/15 09:30:44;;;;;;;12.30;11.50;;;27.30;85.90;;;;;;5089365;28;20779;-54
2021/09/15 09:33:10;;;;;;;11.30;10.60;;;27.50;85.90;;;;;;5082697;28;21291;-55
2021/09/15 09:35:47;;;;;;;11.63;10.83;;;27.60;84.70;;;;;;5089172;28;20448;-50
2021/09/15 09:38:21;;;;;;;10.93;10.23;;;27.50;84.20;;;;;;5068126;28;20681;-52
2021/09/15 09:41:04;;;;;;;12.60;11.70;;;27.60;84.50;;;;;;5069638;28;20519;-48
2021/09/15 09:43:35;;;;;;;11.80;11.00;;;27.40;83.60;;;;;;5069338;28;20995;-49
2021/09/15 09:46:02;;;;;;;11.97;11.10;;;27.70;84.60;;;;;;5085642;28;20537;-51
2021/09/15 09:48:34;;;;;;;11.03;10.13;;;27.70;83.00;;;;;;5069167;28;20829;-51
2021/09/15 09:51:01;;;;;;;11.40;10.50;;;27.70;82.30;;;;;;5068477;28;20909;-51
2021/09/15 09:53:27;;;;;;;10.73;10.03;;;27.60;82.30;;;;;;5068384;28;20439;-50
2021/09/15 09:55:57;;;;;;;10.87;10.17;;;27.70;82.10;;;;;;5068889;28;20449;-50
2021/09/15 09:58:24;;;;;;;10.97;10.17;;;27.80;84.10;;;;;;5067901;28;20467;-54
2021/09/15 10:00:54;;;;;;;10.70;10.00;;;27.80;83.50;;;;;;5068699;28;21035;-54
2021/09/15 10:03:19;;;;;;;10.90;10.00;;;27.60;81.80;;;;;;5072629;28;20445;-52
2021/09/15 10:05:45;;;;;;;11.37;10.43;;;27.50;83.20;;;;;;5088435;28;20927;-52
2021/09/15 10:08:12;;;;;;;10.93;10.13;;;27.40;83.40;;;;;;5077469;28;20303;-50
2021/09/15 10:10:41;;;;;;;10.90;10.20;;;27.30;84.70;;;;;;5086231;28;20312;-52
2021/09/15 10:13:08;;;;;;;10.43;9.63;;;27.30;83.30;;;;;;5076601;28;20442;-53
2021/09/15 10:15:46;;;;;;;11.93;11.13;;;26.90;85.10;;;;;;5077246;28;20438;-52
2021/09/15 10:18:13;;;;;;;11.43;10.70;;;26.80;85.50;;;;;;5067385;28;20436;-49
2021/09/15 10:20:45;;;;;;;10.50;9.80;;;26.50;86.40;;;;;;5064744;28;20439;-50
2021/09/15 10:23:38;;;;;;;11.20;10.50;;;26.40;87.90;;;;;;5063801;28;20420;-51
2021/09/15 10:26:27;;;;;;;11.13;10.43;;;26.40;88.70;;;;;;5064651;28;20651;-50
2021/09/15 10:29:24;;;;;;;11.73;10.93;;;26.60;88.60;;;;;;5067644;28;20421;-51
2021/09/15 10:32:09;;;;;;;11.67;10.77;;;26.50;90.00;;;;;;5069599;28;20406;-47
2021/09/15 10:34:41;;;;;;;11.27;10.37;;;26.40;88.60;;;;;;5066432;28;20423;-48
2021/09/15 10:37:12;;;;;;;10.73;9.90;;;26.30;89.60;;;;;;5063516;28;20826;-53
2021/09/15 10:39:58;;;;;;;11.70;10.70;;;26.40;90.50;;;;;;5065356;28;20438;-50
2021/09/15 10:42:39;;;;;;;10.87;10.07;;;26.50;90.20;;;;;;5064815;28;20451;-51
2021/09/15 10:45:11;;;;;;;11.33;10.63;;;26.40;89.80;;;;;;5064006;28;20873;-53
2021/09/15 10:47:41;;;;;;;11.00;10.30;;;26.40;90.20;;;;;;5068349;28;20414;-50
2021/09/15 10:50:08;;;;;;;11.30;10.50;;;26.30;90.10;;;;;;5066762;28;20834;-51
2021/09/15 10:52:42;;;;;;;10.83;10.13;;;26.20;89.80;;;;;;5068128;28;20431;-49
2021/09/15 10:55:20;;;;;;;10.77;10.07;;;26.00;90.30;;;;;;5071511;28;20754;-53
2021/09/15 10:57:46;;;;;;;11.00;10.30;;;26.10;90.60;;;;;;5067885;28;20520;-53
2021/09/15 11:00:21;;;;;;;11.70;10.90;;;26.00;90.50;;;;;;5070688;28;20434;-49
2021/09/15 11:02:49;;;;;;;11.90;11.00;;;25.90;90.40;;;;;;5071419;28;21318;-51
2021/09/15 11:05:26;;;;;;;11.47;10.67;;;26.00;90.00;;;;;;5070871;28;21121;-50
2021/09/15 11:07:55;;;;;;;10.67;9.97;;;25.90;89.80;;;;;;5068162;28;20456;-52
2021/09/15 11:10:35;;;;;;;10.33;9.67;;;26.00;90.20;;;;;;5069176;28;20420;-52
2021/09/15 11:13:12;;;;;;;10.40;9.70;;;26.00;89.00;;;;;;5070384;28;20418;-50
2021/09/15 11:15:49;;;;;;;11.07;10.07;;;26.10;89.80;;;;;;5072872;28;21103;-54
2021/09/15 11:18:20;;;;;;;10.33;9.57;;;26.10;88.80;;;;;;5068246;28;21159;-52
2021/09/15 11:20:52;;;;;;;10.73;10.03;;;25.90;88.60;;;;;;5067144;28;20473;-49
2021/09/15 11:23:18;;;;;;;9.77;9.17;;;25.90;89.10;;;;;;5070258;28;20432;-50
2021/09/15 11:25:47;;;;;;;10.30;9.40;;;26.00;90.30;;;;;;5069564;28;20428;-50
2021/09/15 11:28:18;;;;;;;10.07;9.27;;;26.00;90.40;;;;;;5070065;28;20236;-52
2021/09/15 11:30:52;;;;;;;10.17;9.47;;;25.90;90.30;;;;;;5067500;28;21078;-51
2021/09/15 11:33:24;;;;;;;10.23;9.53;;;25.90;91.30;;;;;;5069699;28;20472;-49
2021/09/15 11:36:00;;;;;;;10.90;10.20;;;26.00;90.80;;;;;;5068577;28;20434;-49
2021/09/15 11:38:28;;;;;;;10.30;9.60;;;25.90;90.70;;;;;;5067268;28;20447;-48
2021/09/15 11:41:09;;;;;;;11.30;10.50;;;25.80;90.80;;;;;;5069576;28;20888;-54
2021/09/15 11:43:36;;;;;;;10.90;10.10;;;25.80;91.10;;;;;;5069274;28;20501;-51
2021/09/15 11:46:02;;;;;;;10.73;10.03;;;25.90;91.00;;;;;;5070813;28;20922;-49
2021/09/15 11:48:33;;;;;;;10.90;10.20;;;25.90;90.40;;;;;;5071190;28;20417;-52
2021/09/15 11:51:11;;;;;;;11.30;10.50;;;25.90;91.00;;;;;;5069648;28;20224;-53
2021/09/15 11:53:37;;;;;;;10.47;9.77;;;25.60;91.30;;;;;;5068814;28;21018;-55
2021/09/15 11:56:04;;;;;;;10.63;9.93;;;25.70;91.70;;;;;;5069509;28;20496;-52
2021/09/15 11:58:30;;;;;;;11.43;10.53;;;25.70;91.90;;;;;;5069059;28;20871;-54
2021/09/15 12:00:56;;;;;;;10.60;9.90;;;25.80;92.10;;;;;;5071251;28;20449;-50
2021/09/15 12:03:27;;;;;;;10.83;10.13;;;25.80;92.00;;;;;;5090063;28;20178;-52
2021/09/15 12:05:54;;;;;;;10.83;10.13;;;25.90;92.30;;;;;;5086367;28;20552;-51
2021/09/15 12:08:21;;;;;;;10.60;9.93;;;26.00;92.40;;;;;;5079415;28;20915;-57
2021/09/15 12:10:47;;;;;;;12.13;11.10;;;26.10;91.80;;;;;;5076982;28;20644;-49
2021/09/15 12:13:13;;;;;;;10.47;9.77;;;26.30;91.60;;;;;;5079252;28;20426;-49
2021/09/15 12:15:49;;;;;;;11.13;10.43;;;26.30;91.80;;;;;;5079644;28;20434;-52
2021/09/15 12:18:20;;;;;;;11.07;10.27;;;26.40;91.70;;;;;;5063477;28;20188;-53
2021/09/15 12:20:51;;;;;;;10.97;10.27;;;26.40;91.20;;;;;;5069879;28;20418;-48
2021/09/15 12:23:30;;;;;;;10.47;9.50;;;26.50;91.50;;;;;;5070425;28;20442;-51
2021/09/15 12:25:57;;;;;;;10.63;9.93;;;26.40;91.70;;;;;;5069030;28;20488;-53
2021/09/15 12:28:27;;;;;;;10.63;9.83;;;26.30;91.70;;;;;;5086681;28;20440;-53
2021/09/15 12:30:55;;;;;;;10.47;9.77;;;26.10;91.40;;;;;;5075388;28;20441;-53
2021/09/15 12:33:26;;;;;;;10.40;9.70;;;25.90;92.70;;;;;;5087352;28;20425;-50
2021/09/15 12:36:07;;;;;;;10.73;10.03;;;25.90;92.80;;;;;;5083257;28;20440;-53
2021/09/15 12:38:44;;;;;;;10.10;9.47;;;25.90;92.60;;;;;;5090156;28;20811;-49